sensor_id;sensor_type;location;lat;lon;timestamp;pressure;altitude;pressure_sealevel;temperature;humidity
31346;BME280;21711;49.708;18.568;2023-05-03T00:00:04;97987.78;;;11.84;100.00
31346;BME280;21711;49.708;18.568;2023-05-03T00:02:35;97993.66;;;11.97;100.00
31346;BME280;21711;49.708;18.568;2023-05-03T00:05:06;97989.94;;;11.88;100.00
31346;BME280;21711;49.708;18.568;2023-05-03T00:07:42;97986.00;;;12.11;100.00
31346;BME280;21711;49.708;18.568;2023-05-03T00:10:10;97986.78;;;12.06;100.00
31346;BME280;21711;49.708;18.568;2023-05-03T00:12:40;97994.50;;;12.08;100.00
31346;BME280;21711;49.708;18.568;2023-05-03T00:15:09;97986.00;;;12.11;100.00
31346;BME280;21711;49.708;18.568;2023-05-03T00:17:37;97985.72;;;12.13;100.00
31346;BME280;21711;49.708;18.568;2023-05-03T00:20:05;97984.88;;;12.02;100.00
31346;BME280;21711;49.708;18.568;2023-05-03T00:22:34;97983.56;;;11.89;100.00
31346;BME280;21711;49.708;18.568;2023-05-03T00:25:02;97975.63;;;11.89;100.00
31346;BME280;21711;49.708;18.568;2023-05-03T00:27:30;97975.63;;;11.94;100.00
31346;BME280;21711;49.708;18.568;2023-05-03T00:29:58;97974.59;;;12.10;100.00
31346;BME280;21711;49.708;18.568;2023-05-03T00:32:25;97971.41;;;12.14;100.00
31346;BME280;21711;49.708;18.568;2023-05-03T00:34:56;97975.38;;;12.06;100.00
31346;BME280;21711;49.708;18.568;2023-05-03T00:37:24;97971.41;;;12.14;100.00
31346;BME280;21711;49.708;18.568;2023-05-03T00:39:52;97976.44;;;12.10;100.00
31346;BME280;21711;49.708;18.568;2023-05-03T00:42:19;97980.97;;;12.09;100.00
31346;BME280;21711;49.708;18.568;2023-05-03T00:44:47;97977.53;;;12.09;100.00
31346;BME280;21711;49.708;18.568;2023-05-03T00:47:15;97980.69;;;12.06;100.00
31346;BME280;21711;49.708;18.568;2023-05-03T00:49:43;97976.19;;;12.12;100.00
31346;BME280;21711;49.708;18.568;2023-05-03T00:52:10;97971.41;;;12.08;100.00
31346;BME280;21711;49.708;18.568;2023-05-03T00:54:38;97971.94;;;12.16;100.00
31346;BME280;21711;49.708;18.568;2023-05-03T00:57:06;97968.50;;;12.10;100.00
31346;BME280;21711;49.708;18.568;2023-05-03T00:59:33;97962.69;;;12.13;100.00
31346;BME280;21711;49.708;18.568;2023-05-03T01:02:00;97958.69;;;12.00;100.00
31346;BME280;21711;49.708;18.568;2023-05-03T01:04:28;97962.91;;;11.96;100.00
31346;BME280;21711;49.708;18.568;2023-05-03T01:09:46;97963.94;;;11.90;100.00
31346;BME280;21711;49.708;18.568;2023-05-03T01:18:23;97963.94;;;11.79;100.00
31346;BME280;21711;49.708;18.568;2023-05-03T01:20:53;97966.34;;;11.91;100.00
31346;BME280;21711;49.708;18.568;2023-05-03T01:26:29;97972.97;;;11.89;100.00
31346;BME280;21711;49.708;18.568;2023-05-03T01:28:56;97961.56;;;11.83;100.00
31346;BME280;21711;49.708;18.568;2023-05-03T01:32:00;97958.63;;;11.79;100.00
31346;BME280;21711;49.708;18.568;2023-05-03T01:34:54;97955.72;;;11.76;100.00
31346;BME280;21711;49.708;18.568;2023-05-03T01:37:24;97956.53;;;11.81;100.00
31346;BME280;21711;49.708;18.568;2023-05-03T01:40:01;97957.88;;;11.84;100.00
31346;BME280;21711;49.708;18.568;2023-05-03T01:42:34;97955.72;;;11.86;100.00
31346;BME280;21711;49.708;18.568;2023-05-03T01:45:04;97956.28;;;11.99;100.00
31346;BME280;21711;49.708;18.568;2023-05-03T01:47:32;97959.72;;;11.94;100.00
31346;BME280;21711;49.708;18.568;2023-05-03T01:49:59;97952.56;;;11.89;100.00
31346;BME280;21711;49.708;18.568;2023-05-03T01:52:27;97950.72;;;12.00;100.00
31346;BME280;21711;49.708;18.568;2023-05-03T01:54:54;97952.81;;;11.98;100.00
31346;BME280;21711;49.708;18.568;2023-05-03T01:57:21;97963.44;;;12.03;100.00
31346;BME280;21711;49.708;18.568;2023-05-03T01:59:49;97961.28;;;11.79;100.00
31346;BME280;21711;49.708;18.568;2023-05-03T02:02:16;97952.25;;;11.70;100.00
31346;BME280;21711;49.708;18.568;2023-05-03T02:04:43;97952.00;;;11.82;100.00
31346;BME280;21711;49.708;18.568;2023-05-03T02:07:11;97952.28;;;11.80;100.00
31346;BME280;21711;49.708;18.568;2023-05-03T02:09:38;97964.75;;;11.90;100.00
31346;BME280;21711;49.708;18.568;2023-05-03T02:12:06;97960.22;;;11.70;100.00
31346;BME280;21711;49.708;18.568;2023-05-03T02:14:34;97951.25;;;11.92;100.00
31346;BME280;21711;49.708;18.568;2023-05-03T02:17:01;97950.19;;;11.88;100.00
31346;BME280;21711;49.708;18.568;2023-05-03T02:19:29;97952.00;;;11.77;100.00
31346;BME280;21711;49.708;18.568;2023-05-03T02:21:56;97949.66;;;11.91;100.00
31346;BME280;21711;49.708;18.568;2023-05-03T02:24:24;97949.91;;;11.89;100.00
31346;BME280;21711;49.708;18.568;2023-05-03T02:26:51;97952.81;;;11.88;100.00
31346;BME280;21711;49.708;18.568;2023-05-03T02:29:18;97957.06;;;11.94;100.00
31346;BME280;21711;49.708;18.568;2023-05-03T02:31:46;97955.72;;;11.96;100.00
31346;BME280;21711;49.708;18.568;2023-05-03T02:34:13;97954.66;;;11.92;100.00
31346;BME280;21711;49.708;18.568;2023-05-03T02:36:40;97956.81;;;11.90;100.00
31346;BME280;21711;49.708;18.568;2023-05-03T02:39:07;97959.19;;;11.92;100.00
31346;BME280;21711;49.708;18.568;2023-05-03T02:41:35;97961.31;;;12.00;100.00
31346;BME280;21711;49.708;18.568;2023-05-03T02:44:03;97959.47;;;12.11;100.00
31346;BME280;21711;49.708;18.568;2023-05-03T02:46:31;97960.03;;;12.18;100.00
31346;BME280;21711;49.708;18.568;2023-05-03T02:48:58;97962.66;;;12.23;100.00
31346;BME280;21711;49.708;18.568;2023-05-03T02:51:26;97964.00;;;12.21;100.00
31346;BME280;21711;49.708;18.568;2023-05-03T02:53:53;97969.31;;;12.10;100.00
31346;BME280;21711;49.708;18.568;2023-05-03T02:56:21;97969.03;;;12.28;100.00
31346;BME280;21711;49.708;18.568;2023-05-03T02:58:48;97972.22;;;12.14;100.00
31346;BME280;21711;49.708;18.568;2023-05-03T03:01:15;97971.16;;;12.15;100.00
31346;BME280;21711;49.708;18.568;2023-05-03T03:03:43;97982.31;;;12.22;100.00
31346;BME280;21711;49.708;18.568;2023-05-03T03:06:11;97973.03;;;12.20;100.00
31346;BME280;21711;49.708;18.568;2023-05-03T03:08:38;97975.13;;;12.28;100.00
31346;BME280;21711;49.708;18.568;2023-05-03T03:11:07;97980.16;;;12.25;100.00
31346;BME280;21711;49.708;18.568;2023-05-03T03:13:34;97981.75;;;12.05;100.00
31346;BME280;21711;49.708;18.568;2023-05-03T03:16:07;97982.31;;;12.17;100.00
31346;BME280;21711;49.708;18.568;2023-05-03T03:18:36;97980.69;;;12.11;100.00
31346;BME280;21711;49.708;18.568;2023-05-03T03:21:03;97983.34;;;12.32;100.00
31346;BME280;21711;49.708;18.568;2023-05-03T03:23:33;97985.44;;;12.40;100.00
31346;BME280;21711;49.708;18.568;2023-05-03T03:26:00;97987.34;;;12.24;100.00
31346;BME280;21711;49.708;18.568;2023-05-03T03:28:27;97986.00;;;12.27;100.00
31346;BME280;21711;49.708;18.568;2023-05-03T03:30:59;97991.03;;;12.13;100.00
31346;BME280;21711;49.708;18.568;2023-05-03T03:33:26;97982.56;;;12.10;100.00
31346;BME280;21711;49.708;18.568;2023-05-03T03:36:00;97989.44;;;12.17;100.00
31346;BME280;21711;49.708;18.568;2023-05-03T03:38:33;97983.81;;;11.92;100.00
31346;BME280;21711;49.708;18.568;2023-05-03T03:41:04;97991.50;;;11.94;100.00
31346;BME280;21711;49.708;18.568;2023-05-03T03:43:32;97989.94;;;11.93;100.00
31346;BME280;21711;49.708;18.568;2023-05-03T03:46:01;97987.88;;;12.16;100.00
31346;BME280;21711;49.708;18.568;2023-05-03T03:48:28;97998.19;;;12.07;100.00
31346;BME280;21711;49.708;18.568;2023-05-03T03:50:56;97989.66;;;11.89;100.00
31346;BME280;21711;49.708;18.568;2023-05-03T03:53:30;97988.38;;;12.07;100.00
31346;BME280;21711;49.708;18.568;2023-05-03T03:55:58;97998.69;;;12.04;100.00
31346;BME280;21711;49.708;18.568;2023-05-03T03:58:25;98001.91;;;12.06;100.00
31346;BME280;21711;49.708;18.568;2023-05-03T04:00:54;98008.25;;;12.15;100.00
31346;BME280;21711;49.708;18.568;2023-05-03T04:03:23;98005.84;;;12.03;100.00
31346;BME280;21711;49.708;18.568;2023-05-03T04:05:51;98004.53;;;12.11;100.00
31346;BME280;21711;49.708;18.568;2023-05-03T04:08:20;98010.41;;;12.23;100.00
31346;BME280;21711;49.708;18.568;2023-05-03T04:10:47;98008.00;;;12.27;100.00
31346;BME280;21711;49.708;18.568;2023-05-03T04:13:15;98008.25;;;12.26;100.00
31346;BME280;21711;49.708;18.568;2023-05-03T04:15:43;98009.06;;;12.26;100.00
31346;BME280;21711;49.708;18.568;2023-05-03T04:18:12;98013.06;;;12.18;100.00
31346;BME280;21711;49.708;18.568;2023-05-03T04:20:41;98012.25;;;12.23;100.00
31346;BME280;21711;49.708;18.568;2023-05-03T04:23:08;98019.41;;;12.17;100.00
31346;BME280;21711;49.708;18.568;2023-05-03T04:25:37;98018.09;;;12.25;100.00
31346;BME280;21711;49.708;18.568;2023-05-03T04:28:11;98024.97;;;12.21;100.00
31346;BME280;21711;49.708;18.568;2023-05-03T04:30:42;98027.38;;;12.12;100.00
31346;BME280;21711;49.708;18.568;2023-05-03T04:33:18;98027.63;;;12.26;100.00
31346;BME280;21711;49.708;18.568;2023-05-03T04:35:51;98027.13;;;12.24;100.00
31346;BME280;21711;49.708;18.568;2023-05-03T04:38:19;98025.50;;;12.28;100.00
31346;BME280;21711;49.708;18.568;2023-05-03T04:40:46;98024.97;;;12.31;100.00
31346;BME280;21711;49.708;18.568;2023-05-03T04:43:14;98030.03;;;12.28;100.00
31346;BME280;21711;49.708;18.568;2023-05-03T04:45:44;98032.16;;;12.31;100.00
31346;BME280;21711;49.708;18.568;2023-05-03T04:48:19;98037.72;;;12.45;100.00
31346;BME280;21711;49.708;18.568;2023-05-03T04:50:46;98037.19;;;12.43;100.00
31346;BME280;21711;49.708;18.568;2023-05-03T04:53:17;98049.91;;;12.35;100.00
31346;BME280;21711;49.708;18.568;2023-05-03T04:55:49;98042.22;;;12.39;100.00
31346;BME280;21711;49.708;18.568;2023-05-03T04:58:17;98046.72;;;12.28;100.00
31346;BME280;21711;49.708;18.568;2023-05-03T05:00:45;98045.41;;;12.36;100.00
31346;BME280;21711;49.708;18.568;2023-05-03T05:03:20;98052.03;;;12.54;100.00
31346;BME280;21711;49.708;18.568;2023-05-03T05:05:49;98052.03;;;12.49;100.00
31346;BME280;21711;49.708;18.568;2023-05-03T05:08:18;98052.03;;;12.59;100.00
31346;BME280;21711;49.708;18.568;2023-05-03T05:10:51;98051.50;;;12.52;100.00
31346;BME280;21711;49.708;18.568;2023-05-03T05:13:23;98059.97;;;12.70;100.00
31346;BME280;21711;49.708;18.568;2023-05-03T05:15:50;98056.00;;;12.72;100.00
31346;BME280;21711;49.708;18.568;2023-05-03T05:18:18;98057.59;;;12.79;100.00
31346;BME280;21711;49.708;18.568;2023-05-03T05:20:47;98061.56;;;12.66;100.00
31346;BME280;21711;49.708;18.568;2023-05-03T05:23:14;98069.81;;;12.54;100.00
31346;BME280;21711;49.708;18.568;2023-05-03T05:25:45;98067.69;;;12.61;100.00
31346;BME280;21711;49.708;18.568;2023-05-03T05:28:13;98065.31;;;12.59;100.00
31346;BME280;21711;49.708;18.568;2023-05-03T05:30:40;98076.97;;;12.63;100.00
31346;BME280;21711;49.708;18.568;2023-05-03T05:33:08;98075.66;;;12.66;100.00
31346;BME280;21711;49.708;18.568;2023-05-03T05:35:36;98075.41;;;12.62;100.00
31346;BME280;21711;49.708;18.568;2023-05-03T05:38:04;98083.88;;;12.65;100.00
31346;BME280;21711;49.708;18.568;2023-05-03T05:40:33;98080.16;;;12.66;100.00
31346;BME280;21711;49.708;18.568;2023-05-03T05:43:01;98076.72;;;12.60;100.00
31346;BME280;21711;49.708;18.568;2023-05-03T05:45:33;98081.22;;;12.54;100.00
31346;BME280;21711;49.708;18.568;2023-05-03T05:48:02;98083.88;;;12.65;100.00
31346;BME280;21711;49.708;18.568;2023-05-03T05:50:31;98080.69;;;12.57;100.00
31346;BME280;21711;49.708;18.568;2023-05-03T05:53:03;98082.56;;;12.57;100.00
31346;BME280;21711;49.708;18.568;2023-05-03T05:55:35;98091.78;;;12.28;100.00
31346;BME280;21711;49.708;18.568;2023-05-03T05:58:03;98096.06;;;12.40;100.00
31346;BME280;21711;49.708;18.568;2023-05-03T06:00:39;98100.06;;;12.58;100.00
31346;BME280;21711;49.708;18.568;2023-05-03T06:03:07;98092.09;;;12.42;100.00
31346;BME280;21711;49.708;18.568;2023-05-03T06:05:34;98098.72;;;12.60;100.00
31346;BME280;21711;49.708;18.568;2023-05-03T06:08:01;98095.53;;;12.32;100.00
31346;BME280;21711;49.708;18.568;2023-05-03T06:10:29;98102.69;;;12.21;100.00
31346;BME280;21711;49.708;18.568;2023-05-03T06:12:57;98108.53;;;12.39;100.00
31346;BME280;21711;49.708;18.568;2023-05-03T06:15:26;98109.84;;;12.42;100.00
31346;BME280;21711;49.708;18.568;2023-05-03T06:17:53;98111.19;;;12.34;100.00
31346;BME280;21711;49.708;18.568;2023-05-03T06:20:22;98113.53;;;12.15;100.00
31346;BME280;21711;49.708;18.568;2023-05-03T06:22:51;98110.25;;;11.87;100.00
31346;BME280;21711;49.708;18.568;2023-05-03T06:25:19;98118.97;;;11.82;100.00
31346;BME280;21711;49.708;18.568;2023-05-03T06:27:49;98121.03;;;11.69;100.00
31346;BME280;21711;49.708;18.568;2023-05-03T06:30:19;98124.38;;;11.49;100.00
31346;BME280;21711;49.708;18.568;2023-05-03T06:32:48;98123.78;;;11.37;100.00
31346;BME280;21711;49.708;18.568;2023-05-03T06:35:17;98129.16;;;11.04;100.00
31346;BME280;21711;49.708;18.568;2023-05-03T06:37:46;98134.72;;;11.08;100.00
31346;BME280;21711;49.708;18.568;2023-05-03T06:40:14;98134.75;;;11.13;100.00
31346;BME280;21711;49.708;18.568;2023-05-03T06:42:42;98143.50;;;11.13;100.00
31346;BME280;21711;49.708;18.568;2023-05-03T06:45:18;98136.97;;;11.26;100.00
31346;BME280;21711;49.708;18.568;2023-05-03T06:47:45;98136.97;;;11.26;100.00
31346;BME280;21711;49.708;18.568;2023-05-03T06:50:13;98143.06;;;11.27;100.00
31346;BME280;21711;49.708;18.568;2023-05-03T06:52:40;98143.25;;;11.15;100.00
31346;BME280;21711;49.708;18.568;2023-05-03T06:55:08;98145.59;;;11.11;100.00
31346;BME280;21711;49.708;18.568;2023-05-03T06:57:36;98144.50;;;11.07;100.00
31346;BME280;21711;49.708;18.568;2023-05-03T07:00:04;98146.84;;;10.98;100.00
31346;BME280;21711;49.708;18.568;2023-05-03T07:02:33;98156.28;;;10.89;100.00
31346;BME280;21711;49.708;18.568;2023-05-03T07:05:01;98152.91;;;10.94;100.00
31346;BME280;21711;49.708;18.568;2023-05-03T07:07:29;98155.84;;;10.97;100.00
31346;BME280;21711;49.708;18.568;2023-05-03T07:09:57;98158.22;;;10.99;100.00
31346;BME280;21711;49.708;18.568;2023-05-03T07:12:24;98163.28;;;11.00;100.00
31346;BME280;21711;49.708;18.568;2023-05-03T07:14:54;98157.88;;;10.90;100.00
31346;BME280;21711;49.708;18.568;2023-05-03T07:17:23;98160.63;;;11.00;100.00
31346;BME280;21711;49.708;18.568;2023-05-03T07:19:51;98169.97;;;11.13;100.00
31346;BME280;21711;49.708;18.568;2023-05-03T07:22:19;98173.38;;;11.09;100.00
31346;BME280;21711;49.708;18.568;2023-05-03T07:24:52;98169.13;;;11.08;100.00
31346;BME280;21711;49.708;18.568;2023-05-03T07:27:25;98160.84;;;10.94;100.00
31346;BME280;21711;49.708;18.568;2023-05-03T07:29:53;98166.28;;;11.14;100.00
31346;BME280;21711;49.708;18.568;2023-05-03T07:32:20;98162.56;;;11.15;100.00
31346;BME280;21711;49.708;18.568;2023-05-03T07:34:48;98173.97;;;11.16;100.00
31346;BME280;21711;49.708;18.568;2023-05-03T07:37:15;98168.50;;;11.28;100.00
31346;BME280;21711;49.708;18.568;2023-05-03T07:39:43;98174.03;;;11.26;100.00
31346;BME280;21711;49.708;18.568;2023-05-03T07:42:11;98175.56;;;11.17;100.00
31346;BME280;21711;49.708;18.568;2023-05-03T07:44:39;98174.31;;;11.30;100.00
31346;BME280;21711;49.708;18.568;2023-05-03T07:47:07;98177.00;;;11.35;100.00
31346;BME280;21711;49.708;18.568;2023-05-03T07:49:36;98173.56;;;11.35;100.00
31346;BME280;21711;49.708;18.568;2023-05-03T07:52:04;98179.63;;;11.30;100.00
31346;BME280;21711;49.708;18.568;2023-05-03T07:54:31;98176.94;;;11.25;100.00
31346;BME280;21711;49.708;18.568;2023-05-03T07:56:59;98190.41;;;11.23;100.00
31346;BME280;21711;49.708;18.568;2023-05-03T07:59:26;98190.69;;;11.22;100.00
31346;BME280;21711;49.708;18.568;2023-05-03T08:01:53;98188.44;;;11.41;100.00
31346;BME280;21711;49.708;18.568;2023-05-03T08:04:21;98195.91;;;11.49;100.00
31346;BME280;21711;49.708;18.568;2023-05-03T08:06:50;98191.66;;;11.48;100.00
31346;BME280;21711;49.708;18.568;2023-05-03T08:09:18;98197.00;;;11.53;100.00
31346;BME280;21711;49.708;18.568;2023-05-03T08:11:46;98193.19;;;11.39;100.00
31346;BME280;21711;49.708;18.568;2023-05-03T08:14:14;98196.06;;;11.32;100.00
31346;BME280;21711;49.708;18.568;2023-05-03T08:16:42;98205.72;;;11.54;100.00
31346;BME280;21711;49.708;18.568;2023-05-03T08:19:09;98203.47;;;11.73;100.00
31346;BME280;21711;49.708;18.568;2023-05-03T08:21:36;98207.88;;;11.57;100.00
31346;BME280;21711;49.708;18.568;2023-05-03T08:24:04;98210.69;;;11.40;100.00
31346;BME280;21711;49.708;18.568;2023-05-03T08:26:35;98212.53;;;11.44;100.00
31346;BME280;21711;49.708;18.568;2023-05-03T08:29:02;98203.03;;;11.49;100.00
31346;BME280;21711;49.708;18.568;2023-05-03T08:31:29;98204.63;;;11.50;100.00
31346;BME280;21711;49.708;18.568;2023-05-03T08:33:57;98210.75;;;11.50;100.00
31346;BME280;21711;49.708;18.568;2023-05-03T08:36:25;98212.19;;;11.74;100.00
31346;BME280;21711;49.708;18.568;2023-05-03T08:38:52;98210.16;;;11.91;100.00
31346;BME280;21711;49.708;18.568;2023-05-03T08:41:29;98216.63;;;12.06;100.00
31346;BME280;21711;49.708;18.568;2023-05-03T08:43:59;98219.91;;;11.80;100.00
31346;BME280;21711;49.708;18.568;2023-05-03T08:46:27;98220.13;;;12.22;100.00
31346;BME280;21711;49.708;18.568;2023-05-03T08:48:55;98223.75;;;12.00;100.00
31346;BME280;21711;49.708;18.568;2023-05-03T08:51:23;98224.78;;;12.04;100.00
31346;BME280;21711;49.708;18.568;2023-05-03T08:53:51;98228.91;;;12.28;100.00
31346;BME280;21711;49.708;18.568;2023-05-03T08:56:38;98233.38;;;12.17;100.00
31346;BME280;21711;49.708;18.568;2023-05-03T08:59:06;98231.53;;;12.17;100.00
31346;BME280;21711;49.708;18.568;2023-05-03T09:01:41;98237.75;;;12.49;100.00
31346;BME280;21711;49.708;18.568;2023-05-03T09:04:09;98238.81;;;12.58;100.00
31346;BME280;21711;49.708;18.568;2023-05-03T09:06:38;98237.75;;;12.59;100.00
31346;BME280;21711;49.708;18.568;2023-05-03T09:09:06;98243.91;;;12.86;100.00
31346;BME280;21711;49.708;18.568;2023-05-03T09:11:37;98241.91;;;12.29;100.00
31346;BME280;21711;49.708;18.568;2023-05-03T09:14:17;98238.84;;;12.63;100.00
31346;BME280;21711;49.708;18.568;2023-05-03T09:16:45;98237.94;;;12.32;100.00
31346;BME280;21711;49.708;18.568;2023-05-03T09:19:17;98228.88;;;12.17;100.00
31346;BME280;21711;49.708;18.568;2023-05-03T09:21:46;98239.00;;;12.31;100.00
31346;BME280;21711;49.708;18.568;2023-05-03T09:24:20;98231.00;;;12.20;100.00
31346;BME280;21711;49.708;18.568;2023-05-03T09:26:49;98241.13;;;11.86;100.00
31346;BME280;21711;49.708;18.568;2023-05-03T09:29:29;98244.91;;;11.95;100.00
31346;BME280;21711;49.708;18.568;2023-05-03T09:32:00;98238.97;;;12.26;100.00
31346;BME280;21711;49.708;18.568;2023-05-03T09:34:27;98248.84;;;12.41;100.00
31346;BME280;21711;49.708;18.568;2023-05-03T09:36:55;98250.31;;;12.10;100.00
31346;BME280;21711;49.708;18.568;2023-05-03T09:39:22;98245.28;;;12.14;100.00
31346;BME280;21711;49.708;18.568;2023-05-03T09:41:50;98250.84;;;12.13;100.00
31346;BME280;21711;49.708;18.568;2023-05-03T09:44:17;98247.94;;;12.09;100.00
31346;BME280;21711;49.708;18.568;2023-05-03T09:47:04;98249.09;;;11.86;100.00
31346;BME280;21711;49.708;18.568;2023-05-03T09:49:32;98246.44;;;11.86;100.00
31346;BME280;21711;49.708;18.568;2023-05-03T09:52:01;98251.09;;;12.11;100.00
31346;BME280;21711;49.708;18.568;2023-05-03T09:54:29;98247.47;;;12.28;100.00
31346;BME280;21711;49.708;18.568;2023-05-03T09:57:06;98253.66;;;12.49;100.00
31346;BME280;21711;49.708;18.568;2023-05-03T09:59:36;98251.50;;;12.41;100.00
31346;BME280;21711;49.708;18.568;2023-05-03T10:02:06;98249.91;;;12.34;100.00
31346;BME280;21711;49.708;18.568;2023-05-03T10:04:42;98253.84;;;12.27;100.00
31346;BME280;21711;49.708;18.568;2023-05-03T10:07:16;98247.28;;;12.45;100.00
31346;BME280;21711;49.708;18.568;2023-05-03T10:09:46;98256.03;;;12.45;100.00
31346;BME280;21711;49.708;18.568;2023-05-03T10:12:14;98249.31;;;12.27;100.00
31346;BME280;21711;49.708;18.568;2023-05-03T10:14:47;98254.13;;;12.30;100.00
31346;BME280;21711;49.708;18.568;2023-05-03T10:17:28;98250.41;;;12.36;100.00
31346;BME280;21711;49.708;18.568;2023-05-03T10:25:35;98253.16;;;12.57;100.00
31346;BME280;21711;49.708;18.568;2023-05-03T10:28:06;98252.06;;;12.43;100.00
31346;BME280;21711;49.708;18.568;2023-05-03T10:30:36;98254.16;;;12.46;100.00
31346;BME280;21711;49.708;18.568;2023-05-03T10:35:51;98246.47;;;12.44;100.00
31346;BME280;21711;49.708;18.568;2023-05-03T10:38:37;98249.34;;;12.32;100.00
31346;BME280;21711;49.708;18.568;2023-05-03T10:41:04;98245.13;;;12.36;100.00
31346;BME280;21711;49.708;18.568;2023-05-03T10:46:05;98248.34;;;12.49;100.00
31346;BME280;21711;49.708;18.568;2023-05-03T10:48:34;98252.56;;;12.45;100.00
31346;BME280;21711;49.708;18.568;2023-05-03T10:53:55;98251.53;;;12.56;100.00
31346;BME280;21711;49.708;18.568;2023-05-03T10:56:22;98245.25;;;12.83;100.00
31346;BME280;21711;49.708;18.568;2023-05-03T10:58:50;98246.56;;;12.81;100.00
31346;BME280;21711;49.708;18.568;2023-05-03T11:01:23;98247.88;;;12.78;100.00
31346;BME280;21711;49.708;18.568;2023-05-03T11:04:12;98242.06;;;12.97;100.00
31346;BME280;21711;49.708;18.568;2023-05-03T11:06:43;98242.88;;;13.02;100.00
31346;BME280;21711;49.708;18.568;2023-05-03T11:09:12;98240.75;;;12.99;100.00
31346;BME280;21711;49.708;18.568;2023-05-03T11:11:41;98246.84;;;12.89;100.00
31346;BME280;21711;49.708;18.568;2023-05-03T11:14:10;98254.03;;;13.15;100.00
31346;BME280;21711;49.708;18.568;2023-05-03T11:16:40;98248.69;;;12.79;100.00
31346;BME280;21711;49.708;18.568;2023-05-03T11:19:14;98244.72;;;12.86;100.00
31346;BME280;21711;49.708;18.568;2023-05-03T11:21:42;98242.88;;;13.08;100.00
31346;BME280;21711;49.708;18.568;2023-05-03T11:24:11;98242.38;;;13.21;100.00
31346;BME280;21711;49.708;18.568;2023-05-03T11:26:39;98245.03;;;13.21;100.00
31346;BME280;21711;49.708;18.568;2023-05-03T11:29:09;98243.13;;;13.27;100.00
31346;BME280;21711;49.708;18.568;2023-05-03T11:31:36;98245.28;;;13.25;100.00
31346;BME280;21711;49.708;18.568;2023-05-03T11:34:04;98247.91;;;13.46;100.00
31346;BME280;21711;49.708;18.568;2023-05-03T11:36:33;98244.47;;;13.40;100.00
31346;BME280;21711;49.708;18.568;2023-05-03T11:39:01;98246.34;;;13.45;100.00
31346;BME280;21711;49.708;18.568;2023-05-03T11:41:32;98246.63;;;13.48;100.00
31346;BME280;21711;49.708;18.568;2023-05-03T11:43:59;98244.47;;;13.29;100.00
31346;BME280;21711;49.708;18.568;2023-05-03T11:46:43;98242.38;;;13.26;100.00
31346;BME280;21711;49.708;18.568;2023-05-03T11:49:17;98239.16;;;13.40;100.00
31346;BME280;21711;49.708;18.568;2023-05-03T11:51:45;98245.03;;;13.52;100.00
31346;BME280;21711;49.708;18.568;2023-05-03T11:54:16;98243.41;;;13.67;100.00
31346;BME280;21711;49.708;18.568;2023-05-03T11:56:56;98239.69;;;13.68;100.00
31346;BME280;21711;49.708;18.568;2023-05-03T11:59:37;98235.44;;;13.67;100.00
31346;BME280;21711;49.708;18.568;2023-05-03T12:02:12;98234.91;;;13.65;100.00
31346;BME280;21711;49.708;18.568;2023-05-03T12:04:42;98237.03;;;13.78;100.00
31346;BME280;21711;49.708;18.568;2023-05-03T12:07:14;98234.06;;;13.80;100.00
31346;BME280;21711;49.708;18.568;2023-05-03T12:09:47;98234.63;;;13.77;100.00
31346;BME280;21711;49.708;18.568;2023-05-03T12:12:32;98231.97;;;13.72;100.00
31346;BME280;21711;49.708;18.568;2023-05-03T12:15:03;98228.75;;;13.80;100.00
31346;BME280;21711;49.708;18.568;2023-05-03T12:17:38;98228.75;;;13.80;100.00
31346;BME280;21711;49.708;18.568;2023-05-03T12:20:21;98234.06;;;13.85;100.00
31346;BME280;21711;49.708;18.568;2023-05-03T12:22:54;98226.38;;;13.84;100.00
31346;BME280;21711;49.708;18.568;2023-05-03T12:25:25;98235.66;;;13.86;100.00
31346;BME280;21711;49.708;18.568;2023-05-03T12:28:02;98234.09;;;13.75;100.00
31346;BME280;21711;49.708;18.568;2023-05-03T12:30:32;98232.28;;;13.60;100.00
31346;BME280;21711;49.708;18.568;2023-05-03T12:33:00;98234.94;;;13.54;100.00
31346;BME280;21711;49.708;18.568;2023-05-03T12:35:30;98235.69;;;13.81;100.00
31346;BME280;21711;49.708;18.568;2023-05-03T12:38:01;98223.97;;;13.87;100.00
31346;BME280;21711;49.708;18.568;2023-05-03T12:40:30;98222.97;;;13.57;100.00
31346;BME280;21711;49.708;18.568;2023-05-03T12:43:02;98229.56;;;13.80;100.00
31346;BME280;21711;49.708;18.568;2023-05-03T12:45:29;98228.75;;;13.90;100.00
31346;BME280;21711;49.708;18.568;2023-05-03T12:48:01;98218.09;;;13.85;100.00
31346;BME280;21711;49.708;18.568;2023-05-03T12:50:29;98221.50;;;14.01;100.00
31346;BME280;21711;49.708;18.568;2023-05-03T12:52:58;98222.59;;;14.00;100.00
31346;BME280;21711;49.708;18.568;2023-05-03T12:55:29;98219.72;;;13.81;100.00
31346;BME280;21711;49.708;18.568;2023-05-03T12:58:03;98227.72;;;13.60;100.00
31346;BME280;21711;49.708;18.568;2023-05-03T13:00:51;98222.69;;;13.43;100.00
31346;BME280;21711;49.708;18.568;2023-05-03T13:03:21;98214.97;;;13.41;100.00
31346;BME280;21711;49.708;18.568;2023-05-03T13:05:51;98212.06;;;13.38;100.00
31346;BME280;21711;49.708;18.568;2023-05-03T13:08:19;98213.66;;;13.28;100.00
31346;BME280;21711;49.708;18.568;2023-05-03T13:10:48;98214.44;;;13.45;100.00
31346;BME280;21711;49.708;18.568;2023-05-03T13:13:15;98211.00;;;13.28;100.00
31346;BME280;21711;49.708;18.568;2023-05-03T13:15:43;98207.28;;;13.35;100.00
31346;BME280;21711;49.708;18.568;2023-05-03T13:18:10;98204.09;;;13.38;100.00